createdAt,value
2022-10-23T00:01:29.175Z,7.35
2022-10-23T00:04:01.329Z,7.36
2022-10-23T00:06:29.405Z,7.34
2022-10-23T00:08:56.464Z,7.35
2022-10-23T00:11:25.775Z,7.34
2022-10-23T00:13:55.242Z,7.32
2022-10-23T00:16:22.014Z,7.31
2022-10-23T00:18:48.753Z,7.18
2022-10-23T00:21:17.149Z,7.17
2022-10-23T00:23:44.532Z,7.22
2022-10-23T00:26:15.869Z,7.19
2022-10-23T00:28:48.435Z,7.16
2022-10-23T00:31:15.205Z,7.15
2022-10-23T00:33:43.002Z,7.13
2022-10-23T00:36:12.884Z,7.11
2022-10-23T00:38:40.116Z,7.10
2022-10-23T00:41:08.285Z,7.11
2022-10-23T00:43:54.425Z,7.09
2022-10-23T00:46:21.131Z,7.03
2022-10-23T00:48:47.724Z,7.03
2022-10-23T00:51:14.444Z,7.06
2022-10-23T00:53:42.151Z,7.06
2022-10-23T00:56:08.822Z,7.06
2022-10-23T00:58:35.466Z,7.06
2022-10-23T01:01:02.243Z,7.04
2022-10-23T01:03:29.696Z,7.04
2022-10-23T01:06:01.445Z,7.03
2022-10-23T01:08:37.844Z,7.02
2022-10-23T01:11:12.623Z,7.01
2022-10-23T01:13:51.489Z,7.01
2022-10-23T01:16:27.117Z,6.98
2022-10-23T01:19:08.191Z,6.96
2022-10-23T01:21:53.764Z,6.92
2022-10-23T01:24:31.696Z,6.89
2022-10-23T01:27:33.652Z,6.87
2022-10-23T01:30:15.807Z,6.83
2022-10-23T01:32:48.398Z,6.81
2022-10-23T01:35:22.935Z,6.80
2022-10-23T01:38:06.404Z,6.79
2022-10-23T01:41:03.062Z,6.76
2022-10-23T01:43:44.715Z,6.74
2022-10-23T01:46:16.391Z,6.72
2022-10-23T01:48:48.555Z,6.69
2022-10-23T01:51:16.059Z,6.71
2022-10-23T01:53:44.707Z,6.70
2022-10-23T01:56:15.142Z,6.68
2022-10-23T01:58:46.825Z,6.67
2022-10-23T02:01:15.785Z,6.69
2022-10-23T02:03:45.096Z,6.66
2022-10-23T02:06:12.243Z,6.64
2022-10-23T02:08:39.099Z,6.64
2022-10-23T02:11:13.078Z,6.62
2022-10-23T02:13:44.050Z,6.62
2022-10-23T02:16:23.760Z,6.51
2022-10-23T02:19:14.157Z,6.51
2022-10-23T02:22:24.103Z,6.49
2022-10-23T02:25:00.068Z,6.51
2022-10-23T02:27:35.068Z,6.54
2022-10-23T02:30:07.665Z,6.52
2022-10-23T02:32:36.729Z,6.50
2022-10-23T02:35:04.197Z,6.49
2022-10-23T02:37:30.846Z,6.47
2022-10-23T02:39:57.633Z,6.48
2022-10-23T02:42:34.334Z,6.42
2022-10-23T02:45:25.422Z,6.39
2022-10-23T02:48:07.033Z,6.39
2022-10-23T02:50:33.565Z,6.37
2022-10-23T02:53:12.525Z,6.37
2022-10-23T02:55:54.675Z,6.32
2022-10-23T02:58:30.764Z,6.34
2022-10-23T03:01:05.889Z,6.37
2022-10-23T03:03:38.333Z,6.34
2022-10-23T03:06:05.277Z,6.32
2022-10-23T03:08:42.204Z,6.27
2022-10-23T03:11:08.851Z,6.23
2022-10-23T03:13:35.519Z,6.21
2022-10-23T03:16:02.664Z,6.19
2022-10-23T03:18:29.295Z,6.16
2022-10-23T03:20:56.725Z,6.15
2022-10-23T03:23:23.347Z,6.15
2022-10-23T03:25:49.957Z,6.15
2022-10-23T03:28:16.593Z,6.16
2022-10-23T03:30:43.222Z,6.15
2022-10-23T03:33:09.960Z,6.15
2022-10-23T03:35:36.743Z,6.11
2022-10-23T03:38:03.634Z,6.09
2022-10-23T03:40:30.487Z,6.07
2022-10-23T03:42:57.242Z,6.05
2022-10-23T03:45:23.872Z,6.06
2022-10-23T03:47:51.832Z,6.03
2022-10-23T03:50:19.630Z,6.02
2022-10-23T03:52:46.366Z,6.03
2022-10-23T03:55:13.272Z,6.04
2022-10-23T03:57:40.037Z,6.07
2022-10-23T04:00:07.637Z,6.04
2022-10-23T04:02:34.441Z,6.11
2022-10-23T04:05:01.186Z,6.02
2022-10-23T04:07:27.799Z,6.01
2022-10-23T04:09:54.425Z,6.02
2022-10-23T04:12:21.128Z,6.02
2022-10-23T04:14:47.719Z,6.07
2022-10-23T04:17:14.360Z,6.09
2022-10-23T04:19:40.987Z,6.07
2022-10-23T04:22:07.628Z,6.02
2022-10-23T04:24:34.257Z,5.96
2022-10-23T04:27:00.937Z,5.94
2022-10-23T04:29:29.511Z,5.94
2022-10-23T04:31:56.125Z,5.85
2022-10-23T04:34:22.942Z,5.83
2022-10-23T04:36:49.527Z,5.85
2022-10-23T04:39:16.160Z,5.81
2022-10-23T04:41:42.838Z,5.82
2022-10-23T04:44:09.441Z,5.81
2022-10-23T04:46:36.059Z,5.83
2022-10-23T04:49:02.750Z,5.78
2022-10-23T04:51:29.529Z,5.79
2022-10-23T04:53:56.216Z,5.76
2022-10-23T04:56:22.895Z,5.77
2022-10-23T04:58:49.596Z,5.76
2022-10-23T05:01:16.308Z,5.72
2022-10-23T05:03:43.011Z,5.70
2022-10-23T05:06:09.823Z,5.68
2022-10-23T05:08:36.578Z,5.67
2022-10-23T05:11:03.429Z,5.68
2022-10-23T05:13:30.066Z,5.67
2022-10-23T05:15:58.815Z,5.63
2022-10-23T05:18:43.930Z,5.60
2022-10-23T05:21:14.343Z,5.61
2022-10-23T05:23:43.871Z,5.60
2022-10-23T05:26:10.725Z,5.62
2022-10-23T05:28:37.397Z,5.63
2022-10-23T05:31:06.006Z,5.63
2022-10-23T05:33:33.059Z,5.62
2022-10-23T05:36:00.864Z,5.62
2022-10-23T05:38:32.526Z,5.68
2022-10-23T05:41:00.103Z,5.66
2022-10-23T05:43:27.445Z,5.70
2022-10-23T05:45:54.358Z,5.70
2022-10-23T05:48:34.207Z,5.68
2022-10-23T05:51:06.464Z,5.73
2022-10-23T05:53:33.116Z,5.77
2022-10-23T05:56:09.277Z,5.76
2022-10-23T05:58:36.410Z,5.77
2022-10-23T06:01:08.091Z,5.77
2022-10-23T06:03:35.492Z,5.77
2022-10-23T06:06:02.171Z,5.70
2022-10-23T06:08:29.798Z,5.81
2022-10-23T06:10:56.552Z,5.80
2022-10-23T06:13:23.221Z,5.84
2022-10-23T06:15:49.934Z,5.89
2022-10-23T06:18:16.786Z,5.96
2022-10-23T06:20:43.472Z,6.04
2022-10-23T06:23:10.144Z,6.18
2022-10-23T06:25:36.744Z,6.54
2022-10-23T06:28:03.330Z,6.94
2022-10-23T06:30:30.202Z,7.14
2022-10-23T06:32:56.874Z,7.36
2022-10-23T06:35:23.537Z,7.64
2022-10-23T06:37:50.169Z,7.97
2022-10-23T06:40:16.861Z,8.12
2022-10-23T06:42:43.823Z,8.34
2022-10-23T06:45:10.737Z,8.49
2022-10-23T06:47:37.393Z,8.62
2022-10-23T06:50:04.364Z,8.71
2022-10-23T06:52:46.424Z,8.79
2022-10-23T06:55:13.949Z,8.81
2022-10-23T06:57:40.853Z,8.73
2022-10-23T07:00:08.364Z,8.68
2022-10-23T07:02:34.989Z,8.46
2022-10-23T07:05:01.804Z,8.26
2022-10-23T07:07:32.068Z,8.09
2022-10-23T07:09:58.994Z,8.27
2022-10-23T07:12:25.680Z,8.48
2022-10-23T07:14:52.317Z,8.64
2022-10-23T07:17:18.951Z,8.80
2022-10-23T07:19:47.325Z,8.84
2022-10-23T07:22:15.923Z,8.95
2022-10-23T07:24:43.126Z,9.27
2022-10-23T07:27:09.754Z,9.54
2022-10-23T07:29:36.546Z,9.64
2022-10-23T07:32:04.910Z,9.76
2022-10-23T07:34:32.225Z,9.93
2022-10-23T07:36:58.933Z,10.14
2022-10-23T07:39:25.741Z,10.31
2022-10-23T07:41:52.417Z,10.50
2022-10-23T07:44:21.016Z,10.53
2022-10-23T07:46:49.868Z,10.64
2022-10-23T07:49:16.544Z,10.65
2022-10-23T07:51:45.463Z,10.59
2022-10-23T07:54:14.212Z,10.61
2022-10-23T07:56:40.884Z,10.79
2022-10-23T07:59:07.574Z,11.07
2022-10-23T08:01:39.569Z,11.14
2022-10-23T08:04:06.564Z,11.03
2022-10-23T08:06:35.391Z,11.00
2022-10-23T08:09:06.178Z,11.04
2022-10-23T08:11:35.835Z,11.15
2022-10-23T08:14:04.774Z,11.32
2022-10-23T08:16:36.767Z,11.46
2022-10-23T08:19:04.925Z,11.61
2022-10-23T08:21:32.007Z,11.91
2022-10-23T08:24:00.185Z,12.23
2022-10-23T08:26:30.937Z,12.35
2022-10-23T08:29:01.134Z,12.36
2022-10-23T08:31:28.195Z,12.54
2022-10-23T08:33:54.848Z,12.77
2022-10-23T08:36:24.152Z,13.05
2022-10-23T08:38:53.920Z,13.25
2022-10-23T08:41:25.697Z,13.37
2022-10-23T08:44:11.040Z,13.46
2022-10-23T08:46:42.448Z,13.52
2022-10-23T08:49:42.359Z,13.47
2022-10-23T08:52:41.343Z,13.46
2022-10-23T08:55:30.102Z,13.46
2022-10-23T08:58:01.015Z,13.45
2022-10-23T09:00:28.308Z,13.59
2022-10-23T09:02:56.260Z,13.67
2022-10-23T09:06:00.955Z,13.79
2022-10-23T09:09:05.916Z,13.95
2022-10-23T09:11:47.468Z,14.12
2022-10-23T09:14:35.506Z,14.32
2022-10-23T09:17:20.953Z,14.53
2022-10-23T09:19:50.550Z,14.52
2022-10-23T09:22:17.325Z,14.49
2022-10-23T09:24:44.065Z,14.45
2022-10-23T09:27:16.845Z,14.52
2022-10-23T09:29:55.380Z,14.65
2022-10-23T09:32:33.709Z,14.84
2022-10-23T09:35:00.369Z,14.95
2022-10-23T09:37:29.828Z,15.12
2022-10-23T09:40:18.233Z,15.17
2022-10-23T09:43:04.238Z,15.16
2022-10-23T09:45:34.869Z,15.27
2022-10-23T09:48:19.484Z,15.37
2022-10-23T09:51:20.975Z,15.34
2022-10-23T09:53:51.698Z,15.24
2022-10-23T09:56:27.849Z,15.36
2022-10-23T09:58:58.785Z,15.46
2022-10-23T10:01:28.753Z,15.45
2022-10-23T10:03:55.887Z,15.53
2022-10-23T10:06:31.546Z,15.63
2022-10-23T10:09:07.825Z,15.68
2022-10-23T10:11:44.308Z,15.71
2022-10-23T10:14:29.465Z,15.74
2022-10-23T10:16:58.970Z,15.74
2022-10-23T10:19:53.398Z,15.76
2022-10-23T10:22:26.053Z,15.74
2022-10-23T10:25:03.089Z,15.90
2022-10-23T10:28:14.244Z,16.06
2022-10-23T10:30:58.549Z,16.32
2022-10-23T10:33:40.127Z,16.49
2022-10-23T10:39:01.028Z,16.62
2022-10-23T10:41:35.527Z,16.70
2022-10-23T10:44:16.029Z,16.72
2022-10-23T10:46:45.762Z,16.75
2022-10-23T10:49:24.491Z,16.85
2022-10-23T10:52:03.176Z,16.70
2022-10-23T10:54:52.417Z,16.79
2022-10-23T10:57:28.714Z,16.62
2022-10-23T10:59:59.070Z,16.61
2022-10-23T11:02:35.676Z,16.64
2022-10-23T11:05:15.472Z,16.53
2022-10-23T11:07:53.166Z,16.78
2022-10-23T11:10:20.152Z,16.93
2022-10-23T11:12:48.288Z,16.88
2022-10-23T11:15:27.977Z,16.54
2022-10-23T11:18:01.442Z,16.69
2022-10-23T11:20:38.942Z,16.61
2022-10-23T11:23:08.555Z,16.42
2022-10-23T11:25:44.417Z,16.37
2022-10-23T11:29:13.109Z,16.43
2022-10-23T11:31:52.784Z,16.35
2022-10-23T11:34:47.746Z,16.18
2022-10-23T11:37:19.665Z,16.19
2022-10-23T11:40:17.658Z,16.27
2022-10-23T11:42:44.589Z,16.27
2022-10-23T11:45:33.299Z,16.24
2022-10-23T11:48:06.148Z,16.13
2022-10-23T11:50:52.191Z,16.10
2022-10-23T11:53:32.342Z,16.14
2022-10-23T11:56:16.932Z,16.11
2022-10-23T11:58:53.061Z,16.03
2022-10-23T12:01:22.866Z,15.94
2022-10-23T12:04:13.691Z,15.93
2022-10-23T12:07:00.115Z,16.01
2022-10-23T12:09:28.983Z,16.08
2022-10-23T12:12:15.877Z,16.00
2022-10-23T12:14:46.014Z,16.03
2022-10-23T12:17:24.728Z,15.97
2022-10-23T12:20:01.808Z,15.92
2022-10-23T12:22:38.877Z,15.79
2022-10-23T12:25:17.536Z,15.76
2022-10-23T12:28:06.688Z,15.77
2022-10-23T12:30:45.890Z,15.71
2022-10-23T12:33:54.047Z,15.69
2022-10-23T12:36:25.849Z,15.62
2022-10-23T12:38:54.802Z,15.64
2022-10-23T12:41:25.528Z,15.59
2022-10-23T12:43:59.039Z,15.59
2022-10-23T12:46:43.502Z,15.53
2022-10-23T12:49:18.796Z,15.45
2022-10-23T12:51:46.023Z,15.31
2022-10-23T12:54:21.022Z,15.39
2022-10-23T12:56:48.371Z,15.28
2022-10-23T12:59:20.737Z,15.12
2022-10-23T13:01:52.388Z,14.98
2022-10-23T13:04:33.624Z,14.88
2022-10-23T13:07:03.111Z,14.80
2022-10-23T13:09:42.275Z,14.69
2022-10-23T13:12:24.552Z,14.63
2022-10-23T13:15:08.440Z,14.56
2022-10-23T13:17:37.767Z,14.47
2022-10-23T13:20:16.652Z,14.45
2022-10-23T13:22:44.156Z,14.46
2022-10-23T13:25:52.443Z,14.44
2022-10-23T13:28:33.750Z,14.40
2022-10-23T13:31:27.821Z,14.36
2022-10-23T13:34:00.295Z,14.32
2022-10-23T13:36:32.532Z,14.47
2022-10-23T13:38:59.230Z,14.42
2022-10-23T13:41:28.810Z,14.39
2022-10-23T13:43:55.542Z,14.40
2022-10-23T13:46:27.284Z,14.46
2022-10-23T13:48:54.070Z,14.44
2022-10-23T13:51:27.507Z,14.49
2022-10-23T13:53:55.459Z,14.53
2022-10-23T13:56:24.020Z,14.58
2022-10-23T13:58:51.091Z,14.56
2022-10-23T14:01:28.486Z,14.52
2022-10-23T14:03:57.035Z,14.47
2022-10-23T14:06:23.742Z,14.47
2022-10-23T14:08:50.523Z,14.45
2022-10-23T14:11:18.768Z,14.44
2022-10-23T14:13:46.575Z,14.40
2022-10-23T14:16:15.146Z,14.32
2022-10-23T14:18:42.066Z,14.31
2022-10-23T14:21:11.604Z,14.27
2022-10-23T14:23:38.267Z,14.21
2022-10-23T14:26:07.606Z,14.14
2022-10-23T14:28:34.598Z,14.07
2022-10-23T14:31:09.711Z,14.03
2022-10-23T14:33:36.492Z,13.98
2022-10-23T14:36:03.464Z,13.94
2022-10-23T14:38:30.143Z,13.90
2022-10-23T14:40:56.985Z,13.80
2022-10-23T14:43:24.451Z,13.66
2022-10-23T14:45:51.737Z,13.60
2022-10-23T14:48:18.457Z,13.57
2022-10-23T14:50:48.426Z,13.55
2022-10-23T14:53:15.976Z,13.49
2022-10-23T14:55:42.592Z,13.43
2022-10-23T14:58:09.203Z,13.34
2022-10-23T15:00:35.815Z,13.32
2022-10-23T15:03:02.538Z,13.27
2022-10-23T15:05:29.222Z,13.18
2022-10-23T15:07:56.736Z,13.05
2022-10-23T15:10:23.384Z,13.01
2022-10-23T15:12:49.999Z,12.98
2022-10-23T15:15:16.749Z,12.97
2022-10-23T15:17:43.846Z,12.92
2022-10-23T15:20:10.796Z,12.87
2022-10-23T15:22:37.447Z,12.86
2022-10-23T15:25:04.480Z,12.72
2022-10-23T15:27:31.201Z,12.50
2022-10-23T15:29:57.798Z,12.44
2022-10-23T15:32:24.420Z,12.41
2022-10-23T15:34:52.534Z,12.37
2022-10-23T15:37:19.282Z,12.34
2022-10-23T15:39:46.197Z,12.31
2022-10-23T15:42:12.909Z,12.32
2022-10-23T15:44:40.232Z,12.30
2022-10-23T15:47:07.118Z,12.24
2022-10-23T15:49:33.838Z,12.11
2022-10-23T15:52:00.946Z,12.07
2022-10-23T15:54:30.501Z,12.05
2022-10-23T15:56:59.463Z,11.99
2022-10-23T15:59:26.246Z,11.93
2022-10-23T16:01:53.200Z,11.89
2022-10-23T16:04:19.993Z,11.83
2022-10-23T16:06:47.302Z,11.73
2022-10-23T16:09:14.349Z,11.68
2022-10-23T16:11:42.323Z,11.62
2022-10-23T16:14:13.118Z,11.55
2022-10-23T16:16:39.744Z,11.58
2022-10-23T16:19:06.425Z,11.53
2022-10-23T16:21:36.170Z,11.50
2022-10-23T16:24:05.089Z,11.46
2022-10-23T16:26:32.018Z,11.40
2022-10-23T16:29:01.905Z,11.38
2022-10-23T16:31:29.655Z,11.37
2022-10-23T16:34:01.198Z,11.38
2022-10-23T16:36:29.318Z,11.36
2022-10-23T16:38:56.088Z,11.30
2022-10-23T16:41:22.843Z,11.25
2022-10-23T16:43:49.708Z,11.22
2022-10-23T16:46:19.166Z,11.22
2022-10-23T16:48:46.345Z,11.18
2022-10-23T16:51:15.721Z,11.15
2022-10-23T16:53:43.022Z,11.14
2022-10-23T16:56:11.342Z,11.12
2022-10-23T16:58:41.020Z,11.11
2022-10-23T17:01:10.408Z,11.11
2022-10-23T17:03:40.121Z,11.09
2022-10-23T17:06:11.234Z,11.08
2022-10-23T17:08:38.834Z,11.04
2022-10-23T17:11:11.344Z,11.03
2022-10-23T17:13:41.080Z,10.99
2022-10-23T17:16:13.729Z,11.00
2022-10-23T17:18:43.789Z,10.99
2022-10-23T17:21:16.028Z,10.93
2022-10-23T17:23:43.206Z,10.91
2022-10-23T17:26:14.850Z,10.92
2022-10-23T17:28:43.076Z,10.90
2022-10-23T17:31:13.860Z,10.88
2022-10-23T17:33:41.159Z,10.85
2022-10-23T17:36:08.133Z,10.84
2022-10-23T17:38:37.133Z,10.80
2022-10-23T17:41:04.338Z,10.81
2022-10-23T17:43:31.106Z,10.77
2022-10-23T17:45:57.971Z,10.75
2022-10-23T17:48:24.982Z,10.74
2022-10-23T17:51:07.626Z,10.74
2022-10-23T17:53:36.766Z,10.71
2022-10-23T17:56:05.397Z,10.69
2022-10-23T17:58:32.971Z,10.69
2022-10-23T18:01:11.410Z,10.68
2022-10-23T18:03:39.465Z,10.65
2022-10-23T18:06:08.105Z,10.64
2022-10-23T18:08:36.767Z,10.57
2022-10-23T18:11:05.157Z,10.55
2022-10-23T18:13:35.192Z,10.53
2022-10-23T18:16:07.140Z,10.50
2022-10-23T18:18:34.650Z,10.49
2022-10-23T18:21:04.353Z,10.45
2022-10-23T18:23:32.010Z,10.44
2022-10-23T18:25:59.645Z,10.45
2022-10-23T18:28:27.677Z,10.43
2022-10-23T18:30:56.849Z,10.40
2022-10-23T18:33:24.400Z,10.37
2022-10-23T18:35:51.153Z,10.35
2022-10-23T18:38:17.845Z,10.34
2022-10-23T18:40:44.918Z,10.31
2022-10-23T18:43:15.274Z,10.27
2022-10-23T18:45:46.689Z,10.24
2022-10-23T18:48:13.662Z,10.25
2022-10-23T18:50:40.354Z,10.21
2022-10-23T18:53:06.977Z,10.19
2022-10-23T18:58:05.178Z,10.18
2022-10-23T19:00:31.810Z,10.17
2022-10-23T19:02:58.425Z,10.10
2022-10-23T19:05:25.101Z,10.09
2022-10-23T19:07:52.078Z,10.07
2022-10-23T19:10:20.116Z,10.05
2022-10-23T19:12:46.992Z,10.05
2022-10-23T19:15:15.042Z,10.04
2022-10-23T19:17:41.702Z,10.06
2022-10-23T19:20:14.926Z,10.05
2022-10-23T19:22:44.999Z,10.11
2022-10-23T19:25:15.226Z,10.08
2022-10-23T19:27:44.904Z,10.07
2022-10-23T19:30:13.846Z,10.03
2022-10-23T19:32:41.880Z,9.98
2022-10-23T19:35:09.968Z,9.97
2022-10-23T19:37:36.940Z,9.99
2022-10-23T19:40:09.321Z,10.00
2022-10-23T19:42:41.003Z,10.06
2022-10-23T19:45:11.416Z,10.01
2022-10-23T19:47:38.730Z,10.02
2022-10-23T19:50:07.037Z,10.00
2022-10-23T19:52:34.685Z,9.93
2022-10-23T19:55:03.202Z,9.91
2022-10-23T19:57:33.809Z,9.94
2022-10-23T20:00:01.143Z,9.91
2022-10-23T20:02:28.353Z,9.93
2022-10-23T20:04:55.127Z,9.90
2022-10-23T20:07:21.752Z,9.93
2022-10-23T20:09:48.786Z,9.92
2022-10-23T20:12:15.550Z,9.91
2022-10-23T20:14:42.261Z,9.93
2022-10-23T20:17:09.112Z,9.92
2022-10-23T20:19:35.785Z,9.92
2022-10-23T20:22:02.423Z,9.92
2022-10-23T20:24:29.200Z,9.95
2022-10-23T20:26:56.103Z,9.92
2022-10-23T20:29:24.853Z,9.88
2022-10-23T20:31:51.919Z,9.84
2022-10-23T20:34:19.310Z,9.89
2022-10-23T20:36:48.540Z,9.88
2022-10-23T20:39:18.989Z,9.83
2022-10-23T20:41:45.830Z,9.75
2022-10-23T20:46:43.853Z,9.79
2022-10-23T20:49:11.745Z,9.76
2022-10-23T20:51:38.559Z,9.75
2022-10-23T20:54:05.712Z,9.74
2022-10-23T20:56:34.990Z,9.80
2022-10-23T20:59:04.030Z,9.72
2022-10-23T21:01:32.876Z,9.68
2022-10-23T21:04:01.631Z,9.67
2022-10-23T21:06:41.016Z,9.75
2022-10-23T21:09:18.757Z,9.74
2022-10-23T21:11:45.485Z,9.72
2022-10-23T21:14:12.214Z,9.73
2022-10-23T21:16:46.541Z,9.72
2022-10-23T21:19:15.915Z,9.69
2022-10-23T21:21:43.338Z,9.68
2022-10-23T21:24:15.019Z,9.72
2022-10-23T21:26:42.291Z,9.72
2022-10-23T21:29:24.511Z,9.77
2022-10-23T21:31:53.751Z,9.79
2022-10-23T21:34:20.488Z,9.76
2022-10-23T21:37:11.922Z,9.72
2022-10-23T21:39:34.427Z,9.70
2022-10-23T21:42:01.307Z,9.68
2022-10-23T21:44:27.990Z,9.69
2022-10-23T21:46:55.462Z,9.68
2022-10-23T21:49:22.122Z,9.70
2022-10-23T21:51:48.836Z,9.71
2022-10-23T21:54:15.732Z,9.73
2022-10-23T21:56:49.126Z,9.67
2022-10-23T21:59:21.428Z,9.68
2022-10-23T22:01:49.072Z,9.67
2022-10-23T22:04:17.766Z,9.65
2022-10-23T22:06:45.653Z,9.61
2022-10-23T22:09:15.738Z,9.60
2022-10-23T22:11:42.695Z,9.58
2022-10-23T22:14:09.431Z,9.59
2022-10-23T22:16:36.131Z,9.59
2022-10-23T22:19:03.684Z,9.60
2022-10-23T22:21:31.197Z,9.58
2022-10-23T22:23:59.544Z,9.56
2022-10-23T22:26:35.862Z,9.57
2022-10-23T22:29:08.887Z,9.58
2022-10-23T22:31:36.860Z,9.56
2022-10-23T22:34:18.457Z,9.55
2022-10-23T22:36:52.522Z,9.53
2022-10-23T22:39:19.152Z,9.56
2022-10-23T22:41:47.610Z,9.58
2022-10-23T22:44:15.263Z,9.64
2022-10-23T22:46:42.699Z,9.56
2022-10-23T22:49:09.704Z,9.53
2022-10-23T22:51:37.390Z,9.51
2022-10-23T22:54:04.113Z,9.50
2022-10-23T22:56:30.984Z,9.49
2022-10-23T22:58:57.997Z,9.49
2022-10-23T23:01:40.784Z,9.48
2022-10-23T23:04:25.858Z,9.41
2022-10-23T23:06:54.423Z,9.42
2022-10-23T23:09:21.165Z,9.44
2022-10-23T23:11:54.662Z,9.40
2022-10-23T23:14:23.767Z,9.41
2022-10-23T23:16:52.692Z,9.37
2022-10-23T23:19:19.869Z,9.34
2022-10-23T23:21:46.598Z,9.27
2022-10-23T23:24:13.365Z,9.25
2022-10-23T23:26:40.169Z,9.28
2022-10-23T23:29:06.993Z,9.32
2022-10-23T23:31:33.764Z,9.32
2022-10-23T23:34:01.125Z,9.32
2022-10-23T23:36:28.268Z,9.43
2022-10-23T23:38:57.003Z,9.42
2022-10-23T23:41:24.245Z,9.39
2022-10-23T23:43:50.928Z,9.37
2022-10-23T23:46:18.353Z,9.34
2022-10-23T23:48:48.197Z,9.37
2022-10-23T23:51:17.002Z,9.36
2022-10-23T23:53:44.028Z,9.35
2022-10-23T23:56:10.837Z,9.37
2022-10-23T23:58:37.673Z,9.38
